Evansport, Ohio
Current Conditions -  °F | °C
As of 1:03 AM on Wednesday 22 Oct 2014 (Local Time) from KDFI Reporting Station
Overcast Overcast  
Wind Chill: 41°   Ceiling: 2500
Heat Index: 45°   Visibility: 10mi
Dew Point: 36°   Wind: 8mph
Humidity: 71%   Direction: 10°N
Pressure: 30.22"   Gusts: NA
Location:  41.42°N, 84.39°W
Report Text: KDFI 220503Z AUTO 01007KT 10SM BKN025 OVC050 07/02 A3022 RMK AO2 T00720022
Loading
Personal Weather Stations






























Interactive Weather Map
Tropical Storm Tracking
New forecast layout! Learn more

10-Day Weather Forecast

Advertisements
Track Severe Weather on mobile